Time;durP1;ratioP1;P1;durP2;ratioP2;P2;SDS_P1;SDS_P2;PMS_P1;PMS_P2;Temp;Humidity;BMP_temperature;BMP_pressure;BME280_temperature;BME280_humidity;BME280_pressure;Samples;Min_cycle;Max_cycle;Signal;HPM_P1;HPM_P2
2023/12/27 05:32:13;;;;;;;0.10;0.10;;;11.80;85.60;;;;;;5045309;23;20151;-79
2023/12/27 05:34:38;;;;;;;0.05;0.05;;;11.80;85.60;;;;;;4927564;29;20059;-78
2023/12/27 05:37:04;;;;;;;0.10;0.10;;;11.80;85.70;;;;;;4934993;29;20028;-78
2023/12/27 05:39:30;;;;;;;0.10;0.10;;;11.80;85.70;;;;;;4922252;29;20087;-79
2023/12/27 05:41:55;;;;;;;0.10;0.10;;;11.90;85.50;;;;;;4906368;29;20127;-79
2023/12/27 05:44:21;;;;;;;0.00;0.00;;;11.80;85.50;;;;;;4919964;29;20051;-78
2023/12/27 05:46:46;;;;;;;0.10;0.10;;;11.80;85.60;;;;;;4908378;29;20029;-78
2023/12/27 05:49:12;;;;;;;0.10;0.10;;;11.80;85.50;;;;;;4911998;29;20028;-78
2023/12/27 05:51:39;;;;;;;0.05;0.05;;;11.90;85.50;;;;;;4903173;29;20111;-78
2023/12/27 05:54:05;;;;;;;0.10;0.10;;;11.90;85.50;;;;;;4923035;29;20432;-78
2023/12/27 05:56:31;;;;;;;0.10;0.10;;;11.80;85.40;;;;;;4918217;29;20048;-79
2023/12/27 05:58:56;;;;;;;0.10;0.10;;;11.90;85.40;;;;;;4904499;29;20055;-79
2023/12/27 06:01:22;;;;;;;0.10;0.10;;;11.90;85.40;;;;;;4902151;29;20448;-79
2023/12/27 06:03:47;;;;;;;0.10;0.10;;;11.80;85.50;;;;;;4902195;29;20068;-78
2023/12/27 06:06:13;;;;;;;0.10;0.10;;;11.80;85.50;;;;;;4915410;29;20036;-78
2023/12/27 06:08:38;;;;;;;0.10;0.10;;;11.80;85.60;;;;;;4942248;29;20451;-78
2023/12/27 06:11:11;;;;;;;0.10;0.10;;;11.80;85.60;;;;;;4938641;29;20036;-78
2023/12/27 06:13:38;;;;;;;0.10;0.10;;;11.80;85.40;;;;;;4904275;29;20032;-78
2023/12/27 06:16:04;;;;;;;0.05;0.05;;;11.80;85.50;;;;;;4904300;29;20096;-78
2023/12/27 06:18:29;;;;;;;0.10;0.10;;;11.80;85.50;;;;;;4903980;29;20032;-78
2023/12/27 06:20:55;;;;;;;0.10;0.10;;;11.80;85.60;;;;;;4904343;29;20036;-78
2023/12/27 06:23:21;;;;;;;0.00;0.00;;;11.90;85.30;;;;;;4904301;29;20029;-79
2023/12/27 06:25:46;;;;;;;0.10;0.10;;;11.90;85.30;;;;;;4904211;29;20029;-79
2023/12/27 06:28:12;;;;;;;0.05;0.05;;;12.00;85.20;;;;;;4903931;29;20080;-78
2023/12/27 06:30:37;;;;;;;0.10;0.10;;;11.90;85.30;;;;;;4904036;29;20063;-78
2023/12/27 06:33:03;;;;;;;0.10;0.10;;;11.90;85.20;;;;;;4906377;29;20103;-79
2023/12/27 06:35:29;;;;;;;0.10;0.10;;;11.90;85.40;;;;;;4904147;29;20503;-78
2023/12/27 06:37:56;;;;;;;0.08;0.08;;;11.80;85.40;;;;;;4903697;29;20052;-78
2023/12/27 06:40:21;;;;;;;0.00;0.00;;;11.80;85.50;;;;;;4914808;29;20028;-78
2023/12/27 06:42:47;;;;;;;0.10;0.10;;;11.70;85.70;;;;;;4941714;29;20028;-78
2023/12/27 06:45:13;;;;;;;0.10;0.10;;;11.70;86.00;;;;;;4918429;29;20027;-78
2023/12/27 06:47:39;;;;;;;0.10;0.10;;;11.70;86.10;;;;;;4915058;29;20032;-78
2023/12/27 06:50:05;;;;;;;0.10;0.10;;;11.40;86.40;;;;;;4905857;29;20467;-78
2023/12/27 06:52:31;;;;;;;0.03;0.03;;;11.50;86.70;;;;;;4904765;29;20031;-79
2023/12/27 06:54:56;;;;;;;0.10;0.10;;;11.40;86.70;;;;;;4905449;29;20025;-78
2023/12/27 06:57:22;;;;;;;0.10;0.10;;;11.40;86.80;;;;;;4922545;29;20024;-78
2023/12/27 06:59:50;;;;;;;0.10;0.10;;;11.40;86.80;;;;;;4913847;29;20377;-78
2023/12/27 07:02:15;;;;;;;0.10;0.10;;;11.30;86.90;;;;;;4922354;29;20123;-78
2023/12/27 07:04:43;;;;;;;0.10;0.10;;;11.20;87.30;;;;;;4900459;29;20064;-78
2023/12/27 07:07:09;;;;;;;0.10;0.10;;;11.20;87.50;;;;;;4903537;29;20092;-78
2023/12/27 07:09:34;;;;;;;0.10;0.10;;;11.20;87.70;;;;;;4903093;29;20042;-78
2023/12/27 07:12:00;;;;;;;0.00;0.00;;;11.10;87.60;;;;;;4902240;29;20043;-79
2023/12/27 07:14:26;;;;;;;0.00;0.00;;;11.20;87.70;;;;;;4902952;29;20033;-78
2023/12/27 07:16:51;;;;;;;0.10;0.10;;;11.10;87.80;;;;;;4903623;29;20061;-78
2023/12/27 07:19:17;;;;;;;0.10;0.10;;;11.10;87.80;;;;;;4889177;29;20051;-78
2023/12/27 07:21:43;;;;;;;0.10;0.10;;;11.10;87.80;;;;;;4921983;29;20044;-78
2023/12/27 07:24:08;;;;;;;0.10;0.10;;;11.10;87.80;;;;;;4901458;29;20028;-78
2023/12/27 07:26:34;;;;;;;0.10;0.10;;;11.20;87.70;;;;;;4903158;29;20088;-78
2023/12/27 07:28:59;;;;;;;0.10;0.10;;;11.20;87.50;;;;;;4902816;29;20036;-78
2023/12/27 07:31:25;;;;;;;0.10;0.10;;;11.20;87.40;;;;;;4903696;29;20480;-78
2023/12/27 07:33:51;;;;;;;0.10;0.10;;;11.20;87.30;;;;;;4914905;29;20040;-78
2023/12/27 07:36:17;;;;;;;0.10;0.10;;;11.20;87.50;;;;;;4919609;29;20514;-78
2023/12/27 07:38:42;;;;;;;0.10;0.10;;;11.10;87.50;;;;;;4922025;29;20031;-78
2023/12/27 07:41:08;;;;;;;0.10;0.10;;;11.20;87.40;;;;;;4914184;29;20017;-78
2023/12/27 07:43:35;;;;;;;0.10;0.10;;;11.10;87.50;;;;;;4902673;29;20032;-78
2023/12/27 07:46:01;;;;;;;0.10;0.10;;;11.20;87.60;;;;;;4902751;29;20555;-78
2023/12/27 07:48:28;;;;;;;0.10;0.10;;;11.20;87.50;;;;;;4902742;29;20032;-78
2023/12/27 07:50:55;;;;;;;0.10;0.10;;;11.20;87.40;;;;;;4902349;29;20575;-78
2023/12/27 07:53:21;;;;;;;0.10;0.10;;;11.20;87.30;;;;;;4902690;29;20028;-78
2023/12/27 07:55:47;;;;;;;0.10;0.10;;;11.20;87.20;;;;;;4916015;29;20514;-78
2023/12/27 07:58:13;;;;;;;0.10;0.10;;;11.20;87.30;;;;;;4902447;29;20132;-78
2023/12/27 08:00:38;;;;;;;0.10;0.10;;;11.20;87.10;;;;;;4911703;29;20020;-78
2023/12/27 08:03:08;;;;;;;0.00;0.00;;;11.20;86.90;;;;;;4919686;29;20119;-78
2023/12/27 08:05:36;;;;;;;0.00;0.00;;;11.20;87.00;;;;;;4921318;29;20028;-78
2023/12/27 08:08:05;;;;;;;0.00;0.00;;;11.20;87.00;;;;;;4921093;29;20024;-78
2023/12/27 08:10:31;;;;;;;0.10;0.10;;;11.00;87.10;;;;;;4920651;29;20127;-78
2023/12/27 08:12:58;;;;;;;0.10;0.10;;;11.10;87.20;;;;;;4920145;29;20028;-78
2023/12/27 08:15:24;;;;;;;0.10;0.10;;;11.10;87.10;;;;;;4920568;29;20059;-79
2023/12/27 08:17:49;;;;;;;0.10;0.10;;;11.10;87.00;;;;;;4918739;29;20391;-78
2023/12/27 08:20:15;;;;;;;0.10;0.10;;;11.10;87.00;;;;;;4901911;29;20036;-78
2023/12/27 08:22:40;;;;;;;0.10;0.10;;;11.10;87.10;;;;;;4916666;29;20456;-78
2023/12/27 08:25:12;;;;;;;0.10;0.10;;;11.00;87.00;;;;;;4902013;29;20491;-78
2023/12/27 08:27:38;;;;;;;0.10;0.10;;;11.10;87.10;;;;;;4901776;29;20025;-78
2023/12/27 08:30:05;;;;;;;0.03;0.03;;;11.10;86.90;;;;;;4901937;29;20165;-78
2023/12/27 08:32:30;;;;;;;0.10;0.10;;;11.10;86.90;;;;;;4903637;29;20057;-78
2023/12/27 08:34:56;;;;;;;0.10;0.10;;;11.10;86.90;;;;;;4920732;29;20031;-78
2023/12/27 08:37:21;;;;;;;0.10;0.10;;;11.10;86.90;;;;;;4916860;29;20149;-78
2023/12/27 08:39:48;;;;;;;0.10;0.10;;;11.20;86.70;;;;;;4903792;29;20032;-78
2023/12/27 08:42:14;;;;;;;0.10;0.10;;;11.20;86.70;;;;;;4933309;29;20036;-78
2023/12/27 08:44:39;;;;;;;0.10;0.10;;;11.20;86.60;;;;;;4901787;29;20072;-78
2023/12/27 08:47:05;;;;;;;0.10;0.10;;;11.10;86.60;;;;;;4901891;29;20037;-79
2023/12/27 08:49:31;;;;;;;0.10;0.10;;;11.20;86.60;;;;;;4914764;29;20028;-78
2023/12/27 08:51:56;;;;;;;0.10;0.10;;;11.20;86.30;;;;;;4920689;29;20036;-78
2023/12/27 08:54:22;;;;;;;0.10;0.10;;;11.20;86.40;;;;;;4904548;29;20024;-79
2023/12/27 08:56:48;;;;;;;0.10;0.10;;;11.30;86.10;;;;;;4901433;29;20091;-78
2023/12/27 08:59:13;;;;;;;0.10;0.10;;;11.30;86.10;;;;;;4901767;29;20037;-78
2023/12/27 09:01:39;;;;;;;0.10;0.10;;;11.40;85.80;;;;;;4919413;29;20024;-79
2023/12/27 09:04:05;;;;;;;0.10;0.10;;;11.30;85.50;;;;;;4919442;29;20501;-78
2023/12/27 09:06:31;;;;;;;0.10;0.10;;;11.30;85.60;;;;;;4908098;29;20038;-78
2023/12/27 09:08:57;;;;;;;0.10;0.10;;;11.40;85.50;;;;;;4900287;29;20033;-78
2023/12/27 09:11:22;;;;;;;0.10;0.10;;;11.30;85.30;;;;;;4901418;29;20048;-78
2023/12/27 09:13:48;;;;;;;0.08;0.08;;;11.30;85.10;;;;;;4908606;29;20036;-78
2023/12/27 09:16:14;;;;;;;0.10;0.10;;;11.30;85.10;;;;;;4901491;29;20029;-78
2023/12/27 09:18:39;;;;;;;0.10;0.10;;;11.30;85.00;;;;;;4901597;29;20060;-78
2023/12/27 09:21:06;;;;;;;0.10;0.10;;;11.30;84.90;;;;;;4915857;29;20041;-77
2023/12/27 09:23:31;;;;;;;0.10;0.10;;;11.30;84.90;;;;;;4904787;29;20009;-77
2023/12/27 09:25:57;;;;;;;0.10;0.10;;;11.30;84.80;;;;;;4919405;29;20031;-78
2023/12/27 09:28:25;;;;;;;0.10;0.10;;;11.30;84.60;;;;;;4907648;29;20460;-78
2023/12/27 09:30:51;;;;;;;0.10;0.10;;;11.30;84.60;;;;;;4904973;29;20131;-78
2023/12/27 09:33:17;;;;;;;0.10;0.10;;;11.30;84.30;;;;;;4903550;29;20100;-78
2023/12/27 09:35:42;;;;;;;0.10;0.10;;;11.30;84.30;;;;;;4915086;29;20032;-78
2023/12/27 09:38:08;;;;;;;0.10;0.10;;;11.40;84.20;;;;;;4906681;29;20020;-78
2023/12/27 09:40:34;;;;;;;0.10;0.10;;;11.40;84.20;;;;;;4910578;29;20106;-78
2023/12/27 09:43:03;;;;;;;0.10;0.10;;;11.40;84.20;;;;;;4903739;29;20025;-78
2023/12/27 09:45:32;;;;;;;0.10;0.10;;;11.30;84.60;;;;;;4904748;29;20024;-78
2023/12/27 09:47:59;;;;;;;0.10;0.10;;;11.30;84.80;;;;;;4904863;29;20032;-78
2023/12/27 09:50:25;;;;;;;0.10;0.10;;;11.30;84.60;;;;;;4904903;29;20038;-78
2023/12/27 09:52:53;;;;;;;0.00;0.00;;;11.30;84.60;;;;;;4904539;29;20025;-78
2023/12/27 09:55:19;;;;;;;0.10;0.10;;;11.30;84.70;;;;;;4903392;29;20032;-78
2023/12/27 09:57:48;;;;;;;0.10;0.10;;;11.10;84.80;;;;;;4904758;29;20131;-78
2023/12/27 10:00:14;;;;;;;0.10;0.10;;;11.20;84.70;;;;;;4911182;29;20059;-78
2023/12/27 10:02:44;;;;;;;0.10;0.10;;;11.20;84.90;;;;;;4917275;29;20032;-79
2023/12/27 10:05:21;;;;;;;0.10;0.10;;;11.20;85.00;;;;;;4920976;29;20024;-78
2023/12/27 10:07:47;;;;;;;0.10;0.10;;;11.20;84.70;;;;;;4904683;29;20510;-78
2023/12/27 10:10:14;;;;;;;0.10;0.10;;;11.20;84.80;;;;;;4904167;29;20047;-79
2023/12/27 10:12:41;;;;;;;0.10;0.10;;;11.30;84.80;;;;;;4904821;29;20025;-78
2023/12/27 10:15:12;;;;;;;0.08;0.08;;;11.30;84.80;;;;;;4904194;29;20060;-78
2023/12/27 10:17:38;;;;;;;0.10;0.10;;;11.20;84.70;;;;;;4903259;29;20027;-78
2023/12/27 10:20:06;;;;;;;0.10;0.10;;;11.30;84.70;;;;;;4904075;29;20491;-78
2023/12/27 10:22:32;;;;;;;0.10;0.10;;;11.30;84.70;;;;;;4904443;29;20488;-78
2023/12/27 10:24:59;;;;;;;0.10;0.10;;;11.20;84.50;;;;;;4903933;29;20055;-78
2023/12/27 10:27:30;;;;;;;0.10;0.10;;;11.20;84.50;;;;;;4904253;29;20365;-78
2023/12/27 10:29:56;;;;;;;0.10;0.10;;;11.20;84.60;;;;;;4903897;29;20043;-79
2023/12/27 10:32:22;;;;;;;0.10;0.10;;;11.30;84.70;;;;;;4904532;29;20048;-79
2023/12/27 10:34:47;;;;;;;0.10;0.10;;;11.30;84.70;;;;;;4915822;29;20392;-79
2023/12/27 10:37:13;;;;;;;0.10;0.10;;;11.30;84.30;;;;;;4903010;29;20032;-78
2023/12/27 10:39:45;;;;;;;0.10;0.10;;;11.30;84.30;;;;;;4889042;29;20645;-79
2023/12/27 10:42:13;;;;;;;0.10;0.10;;;11.30;84.40;;;;;;4905725;29;20441;-79
2023/12/27 10:44:39;;;;;;;0.10;0.10;;;11.30;84.30;;;;;;4922920;29;20578;-79
2023/12/27 10:47:09;;;;;;;0.10;0.10;;;11.20;84.40;;;;;;4922272;29;20052;-77
2023/12/27 10:49:36;;;;;;;0.10;0.10;;;11.10;84.70;;;;;;4922548;29;20035;-78
2023/12/27 10:52:03;;;;;;;0.10;0.10;;;11.10;84.70;;;;;;4922583;29;20031;-78
2023/12/27 10:54:29;;;;;;;0.10;0.10;;;11.00;84.90;;;;;;4922614;29;20096;-79
2023/12/27 10:57:00;;;;;;;0.10;0.10;;;11.10;84.80;;;;;;4905855;29;20033;-78
2023/12/27 10:59:27;;;;;;;0.10;0.10;;;10.90;84.80;;;;;;4903899;29;20064;-78
2023/12/27 11:01:54;;;;;;;0.10;0.10;;;11.00;85.10;;;;;;4922400;29;20106;-78
2023/12/27 11:04:21;;;;;;;0.10;0.10;;;11.00;85.10;;;;;;4914224;29;20439;-79
2023/12/27 11:06:49;;;;;;;0.10;0.10;;;10.90;85.00;;;;;;4903461;29;20035;-77
2023/12/27 11:09:17;;;;;;;0.10;0.10;;;10.90;84.80;;;;;;4903280;29;20037;-78
2023/12/27 11:11:43;;;;;;;0.10;0.10;;;11.00;85.00;;;;;;4903468;29;20480;-78
2023/12/27 11:14:13;;;;;;;0.10;0.10;;;11.00;84.80;;;;;;4903193;29;20032;-77
2023/12/27 11:16:40;;;;;;;0.10;0.10;;;11.00;84.50;;;;;;4909311;29;20159;-78
2023/12/27 11:19:08;;;;;;;0.10;0.10;;;11.10;84.40;;;;;;4912925;29;20035;-78
2023/12/27 11:21:37;;;;;;;0.10;0.10;;;11.10;84.20;;;;;;4912661;29;20056;-78
2023/12/27 11:24:04;;;;;;;0.10;0.10;;;11.10;84.20;;;;;;4921059;29;20040;-78
2023/12/27 11:26:34;;;;;;;0.10;0.10;;;11.20;84.40;;;;;;4905279;29;20436;-78
2023/12/27 11:29:01;;;;;;;0.10;0.10;;;11.20;84.30;;;;;;4900517;29;20115;-78
2023/12/27 11:31:28;;;;;;;0.10;0.10;;;11.30;84.00;;;;;;4916674;29;20048;-79
2023/12/27 11:33:54;;;;;;;0.10;0.10;;;11.30;83.60;;;;;;4921706;29;20043;-78
2023/12/27 11:36:20;;;;;;;0.10;0.10;;;11.50;83.70;;;;;;4896376;29;20123;-78
2023/12/27 11:38:46;;;;;;;0.10;0.10;;;11.50;83.30;;;;;;4886462;29;20037;-78
2023/12/27 11:41:12;;;;;;;0.10;0.10;;;11.50;82.90;;;;;;4901782;29;20027;-78
2023/12/27 11:43:53;;;;;;;0.10;0.10;;;11.60;83.10;;;;;;4916774;29;20407;-78
2023/12/27 11:46:27;;;;;;;0.10;0.10;;;11.60;82.80;;;;;;4922016;29;20020;-78
2023/12/27 11:48:54;;;;;;;0.10;0.10;;;11.60;82.50;;;;;;4921501;29;20028;-78
2023/12/27 11:51:32;;;;;;;0.10;0.10;;;11.70;82.60;;;;;;4903446;29;20025;-79
2023/12/27 11:53:58;;;;;;;0.10;0.10;;;11.70;82.20;;;;;;4886286;29;20032;-78
2023/12/27 11:56:28;;;;;;;0.10;0.10;;;11.60;82.60;;;;;;4890344;29;20372;-78
2023/12/27 11:58:54;;;;;;;0.10;0.10;;;11.60;82.40;;;;;;4902205;29;20031;-78
2023/12/27 12:01:37;;;;;;;0.10;0.10;;;11.60;82.50;;;;;;4917558;29;20024;-78
2023/12/27 12:04:24;;;;;;;0.10;0.10;;;11.50;82.30;;;;;;4900216;29;20037;-78
2023/12/27 12:06:55;;;;;;;0.10;0.10;;;11.40;82.30;;;;;;4902360;29;20032;-79
2023/12/27 12:09:44;;;;;;;0.10;0.10;;;11.50;82.10;;;;;;4902460;29;20511;-78
2023/12/27 12:12:16;;;;;;;0.10;0.10;;;11.60;82.30;;;;;;4901334;29;20064;-78
2023/12/27 12:14:42;;;;;;;0.10;0.10;;;11.70;81.80;;;;;;4900922;29;20088;-78
2023/12/27 12:17:09;;;;;;;0.10;0.10;;;11.40;81.70;;;;;;4901823;29;20033;-78
2023/12/27 12:19:38;;;;;;;0.10;0.10;;;11.50;82.20;;;;;;4902316;29;20051;-79
2023/12/27 12:22:04;;;;;;;0.10;0.10;;;11.60;82.10;;;;;;4902072;29;20076;-78
2023/12/27 12:24:30;;;;;;;0.10;0.10;;;11.50;81.90;;;;;;4902372;29;20127;-79
2023/12/27 12:26:57;;;;;;;0.10;0.10;;;11.50;81.80;;;;;;4901967;29;20032;-78
2023/12/27 12:29:26;;;;;;;0.10;0.10;;;11.30;82.40;;;;;;4901906;29;20056;-78
2023/12/27 12:31:56;;;;;;;0.10;0.10;;;11.40;82.10;;;;;;4901914;29;20056;-78
2023/12/27 12:34:25;;;;;;;0.10;0.10;;;11.30;82.30;;;;;;4901190;29;20376;-79
2023/12/27 12:36:54;;;;;;;0.10;0.10;;;11.30;82.50;;;;;;4907640;29;20032;-78
2023/12/27 12:39:20;;;;;;;0.10;0.10;;;11.50;82.10;;;;;;4915774;29;20068;-78
2023/12/27 12:41:47;;;;;;;0.10;0.10;;;11.40;82.00;;;;;;4937193;29;20107;-79
2023/12/27 12:44:13;;;;;;;0.10;0.10;;;11.50;82.00;;;;;;4906124;29;20064;-79
2023/12/27 12:46:40;;;;;;;0.10;0.10;;;11.60;81.80;;;;;;4902057;29;20029;-78
2023/12/27 12:49:08;;;;;;;0.10;0.10;;;11.60;81.60;;;;;;4900608;29;20040;-78
2023/12/27 12:51:34;;;;;;;0.10;0.10;;;11.50;81.30;;;;;;4901607;29;20498;-78
2023/12/27 12:54:00;;;;;;;0.10;0.10;;;11.50;81.60;;;;;;4901581;29;20032;-78
2023/12/27 12:56:26;;;;;;;0.10;0.10;;;11.30;81.70;;;;;;4901492;29;20120;-78
2023/12/27 12:58:52;;;;;;;0.10;0.10;;;11.30;81.90;;;;;;4884974;29;20028;-78
2023/12/27 13:01:19;;;;;;;0.20;0.20;;;11.30;81.90;;;;;;4918492;29;21079;-78
2023/12/27 13:03:48;;;;;;;0.10;0.10;;;11.40;81.80;;;;;;4925726;29;20037;-79
2023/12/27 13:06:16;;;;;;;0.10;0.10;;;11.50;81.10;;;;;;4908290;29;20068;-78
2023/12/27 13:08:52;;;;;;;0.10;0.10;;;11.50;81.40;;;;;;4891184;29;20028;-79
2023/12/27 13:11:19;;;;;;;0.10;0.10;;;11.70;81.20;;;;;;4890926;29;20111;-79
2023/12/27 13:13:45;;;;;;;0.10;0.10;;;11.50;80.90;;;;;;4911264;29;20124;-79
2023/12/27 13:16:11;;;;;;;0.10;0.10;;;11.50;81.20;;;;;;4906650;29;20027;-78
2023/12/27 13:18:38;;;;;;;0.10;0.10;;;11.40;81.60;;;;;;4908062;29;20400;-79
2023/12/27 13:21:04;;;;;;;0.10;0.10;;;11.40;81.20;;;;;;4907908;29;20021;-79
2023/12/27 13:23:30;;;;;;;0.10;0.10;;;11.40;81.50;;;;;;4907741;29;20041;-79
2023/12/27 13:25:56;;;;;;;0.10;0.10;;;11.50;81.40;;;;;;4907872;29;20043;-79
2023/12/27 13:28:27;;;;;;;0.10;0.10;;;11.40;81.50;;;;;;4911038;29;20028;-78
2023/12/27 13:30:53;;;;;;;0.10;0.10;;;11.50;81.20;;;;;;4893388;29;20473;-79
2023/12/27 13:33:20;;;;;;;0.10;0.10;;;11.40;81.10;;;;;;4924759;29;20036;-78
2023/12/27 13:35:46;;;;;;;0.10;0.10;;;11.40;81.30;;;;;;4926846;29;20028;-79
2023/12/27 13:38:12;;;;;;;0.10;0.10;;;11.30;81.60;;;;;;4923814;29;20024;-79
2023/12/27 13:40:38;;;;;;;0.10;0.10;;;11.30;81.60;;;;;;4926148;29;20032;-78
2023/12/27 13:43:04;;;;;;;0.10;0.10;;;11.30;81.70;;;;;;4925259;29;20047;-78
2023/12/27 13:45:30;;;;;;;0.10;0.10;;;11.20;81.70;;;;;;4907726;29;20035;-78
2023/12/27 13:47:56;;;;;;;0.10;0.10;;;11.30;81.40;;;;;;4907507;29;20028;-78
2023/12/27 13:50:22;;;;;;;0.10;0.10;;;11.30;81.40;;;;;;4907742;29;20039;-78
2023/12/27 13:52:47;;;;;;;0.10;0.10;;;11.30;81.40;;;;;;4907497;29;20039;-78
2023/12/27 13:55:17;;;;;;;0.10;0.10;;;11.30;81.40;;;;;;4907143;29;20039;-78
2023/12/27 13:57:43;;;;;;;0.10;0.10;;;11.20;81.80;;;;;;4921793;29;20033;-78
2023/12/27 14:00:10;;;;;;;0.00;0.00;;;11.10;81.80;;;;;;4912204;29;20112;-78
2023/12/27 14:02:36;;;;;;;0.10;0.10;;;10.90;82.00;;;;;;4910673;29;20103;-78
2023/12/27 14:05:02;;;;;;;0.10;0.10;;;10.90;82.00;;;;;;4926198;29;20039;-78
2023/12/27 14:07:27;;;;;;;0.10;0.10;;;11.00;82.20;;;;;;4922728;29;20029;-78
2023/12/27 14:09:53;;;;;;;0.10;0.10;;;11.00;81.70;;;;;;4907716;29;20052;-78
2023/12/27 14:12:19;;;;;;;0.10;0.10;;;11.10;81.80;;;;;;4906453;29;20029;-78
2023/12/27 14:14:44;;;;;;;0.10;0.10;;;11.00;82.00;;;;;;4903564;29;20495;-78
2023/12/27 14:17:10;;;;;;;0.10;0.10;;;11.20;81.80;;;;;;4904202;29;20029;-78
2023/12/27 14:19:36;;;;;;;0.10;0.10;;;11.20;81.60;;;;;;4904196;29;20035;-78
2023/12/27 14:22:01;;;;;;;0.10;0.10;;;11.20;81.70;;;;;;4919199;29;20025;-78
2023/12/27 14:24:27;;;;;;;0.10;0.10;;;11.20;81.70;;;;;;4917727;29;20032;-78
2023/12/27 14:26:53;;;;;;;0.10;0.10;;;11.20;81.60;;;;;;4904385;29;20033;-78
2023/12/27 14:29:18;;;;;;;0.10;0.10;;;11.10;81.70;;;;;;4903996;29;20088;-78
2023/12/27 14:31:46;;;;;;;0.10;0.10;;;11.20;81.60;;;;;;4904125;29;20057;-79
2023/12/27 14:34:11;;;;;;;0.10;0.10;;;11.20;81.50;;;;;;4918794;29;20028;-78
2023/12/27 14:36:40;;;;;;;0.10;0.10;;;11.20;81.80;;;;;;4906253;29;20038;-79
2023/12/27 14:39:09;;;;;;;0.10;0.10;;;11.10;81.90;;;;;;4902729;29;20127;-78
2023/12/27 14:41:45;;;;;;;0.10;0.10;;;11.00;82.10;;;;;;4926639;29;20076;-78
2023/12/27 14:44:11;;;;;;;0.10;0.10;;;11.00;82.10;;;;;;4905958;29;20024;-78
2023/12/27 14:46:40;;;;;;;0.10;0.10;;;11.00;82.00;;;;;;4922907;29;20029;-78
2023/12/27 14:49:07;;;;;;;0.10;0.10;;;11.00;82.10;;;;;;4901842;29;20100;-78
2023/12/27 14:51:33;;;;;;;0.10;0.10;;;10.90;82.40;;;;;;4904143;29;20108;-78
2023/12/27 14:53:59;;;;;;;0.10;0.10;;;10.90;82.60;;;;;;4887043;29;20040;-78
2023/12/27 14:56:24;;;;;;;0.10;0.10;;;10.80;82.70;;;;;;4903571;29;20384;-78
2023/12/27 14:58:51;;;;;;;0.10;0.10;;;10.90;82.60;;;;;;4902478;29;20043;-78
2023/12/27 15:01:17;;;;;;;0.10;0.10;;;10.90;82.60;;;;;;4901315;29;20033;-79
2023/12/27 15:03:42;;;;;;;0.10;0.10;;;10.80;82.80;;;;;;4914343;29;20024;-78
2023/12/27 15:06:08;;;;;;;0.10;0.10;;;10.80;82.70;;;;;;4922564;29;20020;-78
2023/12/27 15:08:34;;;;;;;0.10;0.10;;;10.80;82.60;;;;;;4905264;29;20123;-78
2023/12/27 15:10:59;;;;;;;0.10;0.10;;;10.80;82.90;;;;;;4903439;29;20088;-78
2023/12/27 15:13:25;;;;;;;0.10;0.10;;;10.80;82.80;;;;;;4906520;29;20024;-78
2023/12/27 15:15:51;;;;;;;0.10;0.10;;;10.80;83.30;;;;;;4917216;29;20448;-78
2023/12/27 15:18:17;;;;;;;0.10;0.10;;;10.70;84.20;;;;;;4903192;29;20061;-78
2023/12/27 15:20:43;;;;;;;0.10;0.10;;;10.60;84.90;;;;;;4886512;29;20044;-78
2023/12/27 15:23:09;;;;;;;0.10;0.10;;;10.50;85.70;;;;;;4903150;29;20025;-78
2023/12/27 15:25:34;;;;;;;0.10;0.10;;;10.40;86.00;;;;;;4903031;29;20029;-78
2023/12/27 15:28:04;;;;;;;0.10;0.10;;;10.30;86.40;;;;;;4903077;29;20653;-78
2023/12/27 15:30:29;;;;;;;0.10;0.10;;;10.30;86.90;;;;;;4909860;29;20135;-78
2023/12/27 15:32:55;;;;;;;0.10;0.10;;;10.20;87.20;;;;;;4921674;29;20064;-78
2023/12/27 15:35:21;;;;;;;0.10;0.10;;;10.20;87.40;;;;;;4919446;29;20083;-77
2023/12/27 15:37:47;;;;;;;0.10;0.10;;;10.10;87.90;;;;;;4903007;29;20027;-77
2023/12/27 15:40:14;;;;;;;0.10;0.10;;;10.20;88.30;;;;;;4904486;29;20020;-78
2023/12/27 15:42:39;;;;;;;0.10;0.10;;;10.20;88.40;;;;;;4918717;29;20047;-78
2023/12/27 15:45:06;;;;;;;0.10;0.10;;;10.20;88.70;;;;;;4902745;29;20040;-78
2023/12/27 15:47:31;;;;;;;0.10;0.10;;;10.10;88.70;;;;;;4902898;29;20016;-78
2023/12/27 15:49:57;;;;;;;0.10;0.10;;;10.10;89.00;;;;;;4901554;29;20563;-78
2023/12/27 15:52:22;;;;;;;0.10;0.10;;;10.20;89.20;;;;;;4902528;29;20032;-78
2023/12/27 15:54:48;;;;;;;0.00;0.00;;;10.20;89.10;;;;;;4902786;29;20028;-77
2023/12/27 15:57:14;;;;;;;0.10;0.10;;;10.00;89.00;;;;;;4902454;29;20029;-78
2023/12/27 15:59:39;;;;;;;0.10;0.10;;;10.00;89.00;;;;;;4904555;29;20032;-78
2023/12/27 16:02:05;;;;;;;0.10;0.10;;;10.00;89.30;;;;;;4900310;29;20064;-78
2023/12/27 16:04:31;;;;;;;0.10;0.10;;;10.00;89.30;;;;;;4919660;29;20032;-78
2023/12/27 16:06:57;;;;;;;0.00;0.00;;;10.00;89.40;;;;;;4916664;29;20028;-77
2023/12/27 16:09:23;;;;;;;0.10;0.10;;;9.90;89.40;;;;;;4902413;29;20107;-78
2023/12/27 16:11:50;;;;;;;0.10;0.10;;;10.00;89.60;;;;;;4902574;29;20080;-78
2023/12/27 16:14:16;;;;;;;0.10;0.10;;;9.90;89.30;;;;;;4885443;29;20044;-78
2023/12/27 16:16:42;;;;;;;0.10;0.10;;;9.90;89.60;;;;;;4902188;29;20029;-78
2023/12/27 16:19:07;;;;;;;0.00;0.00;;;9.90;89.70;;;;;;4902360;29;20029;-78
2023/12/27 16:21:33;;;;;;;0.10;0.10;;;9.90;89.70;;;;;;4896826;29;20141;-78
2023/12/27 16:24:00;;;;;;;0.10;0.10;;;10.00;89.70;;;;;;4902073;29;20479;-78
2023/12/27 16:26:26;;;;;;;0.10;0.10;;;10.00;89.70;;;;;;4902151;29;20036;-78
2023/12/27 16:28:52;;;;;;;0.10;0.10;;;10.00;89.60;;;;;;4902017;29;20035;-78
2023/12/27 16:31:18;;;;;;;0.10;0.10;;;10.10;89.70;;;;;;4902157;29;20056;-78
2023/12/27 16:33:44;;;;;;;0.00;0.00;;;10.10;89.80;;;;;;4904116;29;20029;-78
2023/12/27 16:36:10;;;;;;;0.10;0.10;;;10.10;89.70;;;;;;4901272;29;20025;-78
2023/12/27 16:38:36;;;;;;;0.10;0.10;;;10.00;90.10;;;;;;4887855;29;20028;-78
2023/12/27 16:41:03;;;;;;;0.10;0.10;;;10.00;90.20;;;;;;4914093;29;20024;-78
2023/12/27 16:43:38;;;;;;;0.10;0.10;;;10.10;90.30;;;;;;4905795;29;20039;-78
2023/12/27 16:46:05;;;;;;;0.10;0.10;;;10.00;90.40;;;;;;4901959;29;20395;-78
2023/12/27 16:48:31;;;;;;;0.10;0.10;;;10.00;90.60;;;;;;4885046;29;20037;-78
2023/12/27 16:50:57;;;;;;;0.10;0.10;;;10.10;90.60;;;;;;4890273;29;20128;-78
2023/12/27 16:53:23;;;;;;;0.10;0.10;;;10.20;90.80;;;;;;4901777;29;20039;-78
2023/12/27 16:55:49;;;;;;;0.00;0.00;;;10.20;90.80;;;;;;4901663;29;20029;-78
2023/12/27 16:58:15;;;;;;;0.10;0.10;;;10.20;90.80;;;;;;4901635;29;20068;-78
2023/12/27 17:00:41;;;;;;;0.10;0.10;;;10.20;90.80;;;;;;4911808;29;20028;-78
2023/12/27 17:03:08;;;;;;;0.10;0.10;;;10.30;90.80;;;;;;4915953;29;20107;-78
2023/12/27 17:05:34;;;;;;;0.10;0.10;;;10.30;90.80;;;;;;4917719;29;20024;-77
2023/12/27 17:08:10;;;;;;;0.10;0.10;;;10.40;90.80;;;;;;4920568;29;20032;-78
2023/12/27 17:10:37;;;;;;;0.10;0.10;;;10.50;90.60;;;;;;4903670;29;20052;-78
2023/12/27 17:13:03;;;;;;;0.10;0.10;;;10.50;90.70;;;;;;4899413;29;20383;-78
2023/12/27 17:15:30;;;;;;;0.10;0.10;;;10.50;90.70;;;;;;4901460;29;20141;-78
2023/12/27 17:17:55;;;;;;;0.10;0.10;;;10.50;90.60;;;;;;4900658;29;20029;-78
2023/12/27 17:20:21;;;;;;;0.00;0.00;;;10.60;90.70;;;;;;4904268;29;20088;-78
2023/12/27 17:22:48;;;;;;;0.10;0.10;;;10.70;90.70;;;;;;4908080;29;20095;-78
2023/12/27 17:25:15;;;;;;;0.10;0.10;;;10.70;90.90;;;;;;4913644;29;20036;-78
2023/12/27 17:27:41;;;;;;;0.10;0.10;;;10.70;91.00;;;;;;4897896;29;20364;-78
2023/12/27 17:30:07;;;;;;;0.10;0.10;;;10.70;91.10;;;;;;4908063;29;20080;-77
2023/12/27 17:32:34;;;;;;;0.10;0.10;;;10.70;91.30;;;;;;4903293;29;20072;-78
2023/12/27 17:35:00;;;;;;;0.10;0.10;;;10.70;91.30;;;;;;4919649;29;20527;-78
2023/12/27 17:37:26;;;;;;;0.10;0.10;;;10.70;91.40;;;;;;4903472;29;20081;-78
2023/12/27 17:39:52;;;;;;;0.10;0.10;;;10.80;91.60;;;;;;4904169;29;20447;-78
2023/12/27 17:42:17;;;;;;;0.00;0.00;;;10.80;91.60;;;;;;4939049;29;20482;-78
2023/12/27 17:44:43;;;;;;;0.10;0.10;;;10.90;91.50;;;;;;4939232;29;20027;-78
2023/12/27 17:47:09;;;;;;;0.10;0.10;;;10.90;91.60;;;;;;4939537;29;20537;-78
2023/12/27 17:49:35;;;;;;;0.10;0.10;;;11.00;91.60;;;;;;4916577;29;20024;-78
2023/12/27 17:52:00;;;;;;;0.10;0.10;;;11.00;91.70;;;;;;4903764;29;20032;-78
2023/12/27 17:54:26;;;;;;;0.10;0.10;;;11.10;91.80;;;;;;4904954;29;20032;-78
2023/12/27 17:56:51;;;;;;;0.10;0.10;;;11.20;92.10;;;;;;4904493;29;20148;-78
2023/12/27 17:59:17;;;;;;;0.10;0.10;;;11.30;92.10;;;;;;4887733;29;20029;-78
2023/12/27 18:01:43;;;;;;;0.05;0.05;;;11.40;92.20;;;;;;4906651;29;20480;-78
2023/12/27 18:04:09;;;;;;;0.10;0.10;;;11.50;92.40;;;;;;4923272;29;20415;-77
2023/12/27 18:06:35;;;;;;;0.00;0.00;;;11.60;92.10;;;;;;4917524;29;20515;-78
2023/12/27 18:09:01;;;;;;;0.10;0.10;;;11.70;92.10;;;;;;4887720;29;20056;-78
2023/12/27 18:11:27;;;;;;;0.10;0.10;;;11.70;92.10;;;;;;4904570;29;20032;-78
2023/12/27 18:13:52;;;;;;;0.10;0.10;;;11.80;92.00;;;;;;4904266;29;20501;-78
2023/12/27 18:16:18;;;;;;;0.10;0.10;;;11.80;92.00;;;;;;4904344;29;20029;-78